createdAt,value
2022-09-18T00:01:31.750Z,0.80
2022-09-18T00:04:02.270Z,0.60
2022-09-18T00:06:32.685Z,0.50
2022-09-18T00:09:02.323Z,0.77
2022-09-18T00:11:35.581Z,0.73
2022-09-18T00:14:04.202Z,0.50
2022-09-18T00:16:32.528Z,0.50
2022-09-18T00:19:00.226Z,0.70
2022-09-18T00:21:29.761Z,0.90
2022-09-18T00:24:00.083Z,0.70
2022-09-18T00:26:28.010Z,0.50
2022-09-18T00:28:57.629Z,0.50
2022-09-18T00:31:29.777Z,0.50
2022-09-18T00:34:00.237Z,0.60
2022-09-18T00:36:30.417Z,0.50
2022-09-18T00:38:59.426Z,0.70
2022-09-18T00:41:35.281Z,0.47
2022-09-18T00:44:34.658Z,0.50
2022-09-18T00:47:11.153Z,0.70
2022-09-18T00:49:58.899Z,0.53
2022-09-18T00:52:32.570Z,0.40
2022-09-18T00:55:06.067Z,0.60
2022-09-18T00:57:38.121Z,0.60
2022-09-18T01:00:12.030Z,0.50
2022-09-18T01:02:43.181Z,0.60
2022-09-18T01:05:14.776Z,0.50
2022-09-18T01:08:03.813Z,0.60
2022-09-18T01:10:47.112Z,0.60
2022-09-18T01:13:27.385Z,0.60
2022-09-18T01:16:34.988Z,0.70
2022-09-18T01:19:38.750Z,0.60
2022-09-18T01:22:16.497Z,0.53
2022-09-18T01:25:13.046Z,0.60
2022-09-18T01:28:13.657Z,0.50
2022-09-18T01:30:45.448Z,0.60
2022-09-18T01:33:59.865Z,0.80
2022-09-18T01:36:30.218Z,0.70
2022-09-18T01:39:04.647Z,0.57
2022-09-18T01:41:33.855Z,0.93
2022-09-18T01:44:07.741Z,0.60
2022-09-18T01:46:38.444Z,0.80
2022-09-18T01:49:10.017Z,0.60
2022-09-18T01:51:44.719Z,0.60
2022-09-18T01:54:23.362Z,0.80
2022-09-18T01:57:12.245Z,0.60
2022-09-18T02:00:01.780Z,0.50
2022-09-18T02:02:39.238Z,0.50
2022-09-18T02:05:10.387Z,0.50
2022-09-18T02:08:05.743Z,0.60
2022-09-18T02:10:38.321Z,0.80
2022-09-18T02:13:08.310Z,0.77
2022-09-18T02:15:40.169Z,0.50
2022-09-18T02:18:13.974Z,0.57
2022-09-18T02:20:44.947Z,0.50
2022-09-18T02:23:12.765Z,0.40
2022-09-18T02:25:44.403Z,0.50
2022-09-18T02:28:15.047Z,0.60
2022-09-18T02:30:43.454Z,0.70
2022-09-18T02:33:24.486Z,0.60
2022-09-18T02:35:57.593Z,0.70
2022-09-18T02:38:35.671Z,0.60
2022-09-18T02:41:40.606Z,0.83
2022-09-18T02:44:28.130Z,0.60
2022-09-18T02:47:08.837Z,0.60
2022-09-18T02:49:55.323Z,0.57
2022-09-18T02:52:32.778Z,0.60
2022-09-18T02:55:14.646Z,0.40
2022-09-18T02:57:56.509Z,0.70
2022-09-18T03:00:27.546Z,0.60
2022-09-18T03:03:02.641Z,0.60
2022-09-18T03:05:30.397Z,0.60
2022-09-18T03:07:59.182Z,0.60
2022-09-18T03:10:26.392Z,0.80
2022-09-18T03:12:53.966Z,0.60
2022-09-18T03:15:22.311Z,0.47
2022-09-18T03:17:50.584Z,0.60
2022-09-18T03:20:18.791Z,0.87
2022-09-18T03:22:46.358Z,0.40
2022-09-18T03:25:15.443Z,0.50
2022-09-18T03:27:43.110Z,1.47
2022-09-18T03:30:12.284Z,0.50
2022-09-18T03:32:40.505Z,0.40
2022-09-18T03:35:08.129Z,0.47
2022-09-18T03:37:34.995Z,0.50
2022-09-18T03:40:02.825Z,0.53
2022-09-18T03:42:30.534Z,0.80
2022-09-18T03:44:57.647Z,0.57
2022-09-18T03:47:26.612Z,0.50
2022-09-18T03:49:54.814Z,0.77
2022-09-18T03:52:23.233Z,0.60
2022-09-18T03:54:50.809Z,0.60
2022-09-18T03:57:18.409Z,0.60
2022-09-18T03:59:45.278Z,0.60
2022-09-18T04:02:12.345Z,0.50
2022-09-18T04:04:40.626Z,0.57
2022-09-18T04:07:09.205Z,0.70
2022-09-18T04:09:36.775Z,0.60
2022-09-18T04:12:04.504Z,0.77
2022-09-18T04:14:31.373Z,0.80
2022-09-18T04:16:58.249Z,0.70
2022-09-18T04:19:27.153Z,0.70
2022-09-18T04:21:55.310Z,0.70
2022-09-18T04:24:22.974Z,0.70
2022-09-18T04:26:50.552Z,0.90
2022-09-18T04:29:17.399Z,0.80
2022-09-18T04:31:45.839Z,0.60
2022-09-18T04:34:13.502Z,0.90
2022-09-18T04:36:40.389Z,0.93
2022-09-18T04:39:07.984Z,1.07
2022-09-18T04:41:36.881Z,0.80
2022-09-18T04:44:04.984Z,0.90
2022-09-18T04:46:33.683Z,1.47
2022-09-18T04:49:00.709Z,1.17
2022-09-18T04:51:28.335Z,1.30
2022-09-18T04:53:56.691Z,1.20
2022-09-18T04:56:24.755Z,1.47
2022-09-18T04:58:51.740Z,0.97
2022-09-18T05:01:19.661Z,1.53
2022-09-18T05:03:48.860Z,1.40
2022-09-18T05:06:17.326Z,1.53
2022-09-18T05:08:45.489Z,1.40
2022-09-18T05:11:14.034Z,1.60
2022-09-18T05:13:43.357Z,1.60
2022-09-18T05:16:10.929Z,1.60
2022-09-18T05:18:39.146Z,1.63
2022-09-18T05:21:07.166Z,1.67
2022-09-18T05:23:34.703Z,1.80
2022-09-18T05:26:03.942Z,1.80
2022-09-18T05:28:32.266Z,1.67
2022-09-18T05:31:00.837Z,1.70
2022-09-18T05:33:29.630Z,1.90
2022-09-18T05:35:57.930Z,1.93
2022-09-18T05:38:26.380Z,2.27
2022-09-18T05:40:54.698Z,1.90
2022-09-18T05:43:22.234Z,2.20
2022-09-18T05:45:49.870Z,2.00
2022-09-18T05:48:18.742Z,2.10
2022-09-18T05:50:46.466Z,2.10
2022-09-18T05:53:16.373Z,1.97
2022-09-18T05:55:45.094Z,2.20
2022-09-18T05:58:17.552Z,2.23
2022-09-18T06:00:46.135Z,1.90
2022-09-18T06:03:16.142Z,2.00
2022-09-18T06:05:43.548Z,1.43
2022-09-18T06:08:12.750Z,2.17
2022-09-18T06:10:41.356Z,1.57
2022-09-18T06:13:15.639Z,1.87
2022-09-18T06:15:54.411Z,1.80
2022-09-18T06:18:22.978Z,1.80
2022-09-18T06:20:56.249Z,1.50
2022-09-18T06:23:25.743Z,1.97
2022-09-18T06:26:01.290Z,1.50
2022-09-18T06:28:30.804Z,1.40
2022-09-18T06:30:59.775Z,1.30
2022-09-18T06:33:32.620Z,1.47
2022-09-18T06:36:01.434Z,1.30
2022-09-18T06:38:28.467Z,1.67
2022-09-18T06:40:58.738Z,1.30
2022-09-18T06:43:26.949Z,1.30
2022-09-18T06:45:55.465Z,1.20
2022-09-18T06:48:23.090Z,1.17
2022-09-18T06:50:58.038Z,1.00
2022-09-18T06:53:26.322Z,1.10
2022-09-18T06:55:59.226Z,1.20
2022-09-18T06:58:27.194Z,1.00
2022-09-18T07:00:54.794Z,1.30
2022-09-18T07:03:21.716Z,1.03
2022-09-18T07:05:49.222Z,1.10
2022-09-18T07:08:16.556Z,1.30
2022-09-18T07:10:43.513Z,1.30
2022-09-18T07:13:12.021Z,1.13
2022-09-18T07:15:39.595Z,0.83
2022-09-18T07:18:08.099Z,1.00
2022-09-18T07:20:36.521Z,1.00
2022-09-18T07:23:04.145Z,1.30
2022-09-18T07:25:32.617Z,0.77
2022-09-18T07:28:10.680Z,0.90
2022-09-18T07:30:39.546Z,1.03
2022-09-18T07:33:08.798Z,0.73
2022-09-18T07:35:37.130Z,1.00
2022-09-18T07:38:06.180Z,0.90
2022-09-18T07:40:33.999Z,0.80
2022-09-18T07:43:03.009Z,1.00
2022-09-18T07:45:31.893Z,1.00
2022-09-18T07:48:05.256Z,0.90
2022-09-18T07:50:33.894Z,1.00
2022-09-18T07:53:03.782Z,0.93
2022-09-18T07:55:34.113Z,0.90
2022-09-18T07:58:05.481Z,1.00
2022-09-18T08:00:36.055Z,1.40
2022-09-18T08:03:09.811Z,0.80
2022-09-18T08:05:38.958Z,1.03
2022-09-18T08:08:15.052Z,0.90
2022-09-18T08:10:43.960Z,1.40
2022-09-18T08:13:11.642Z,0.93
2022-09-18T08:15:41.482Z,0.80
2022-09-18T08:18:11.647Z,1.00
2022-09-18T08:20:41.726Z,0.93
2022-09-18T08:23:10.204Z,0.93
2022-09-18T08:25:38.318Z,0.80
2022-09-18T08:28:06.769Z,0.80
2022-09-18T08:30:35.252Z,0.97
2022-09-18T08:33:06.769Z,1.07
2022-09-18T08:35:34.450Z,1.20
2022-09-18T08:38:02.608Z,1.03
2022-09-18T08:41:01.645Z,1.40
2022-09-18T08:43:29.449Z,1.07
2022-09-18T08:46:11.942Z,1.03
2022-09-18T08:48:49.367Z,1.00
2022-09-18T08:51:30.896Z,1.17
2022-09-18T08:54:41.246Z,1.10
2022-09-18T08:57:19.597Z,1.10
2022-09-18T09:00:23.676Z,1.07
2022-09-18T09:02:55.458Z,1.30
2022-09-18T09:05:31.357Z,1.10
2022-09-18T09:08:25.854Z,1.03
2022-09-18T09:11:12.373Z,0.90
2022-09-18T09:14:07.984Z,1.20
2022-09-18T09:16:44.402Z,0.93
2022-09-18T09:19:28.969Z,0.93
2022-09-18T09:22:17.522Z,1.27
2022-09-18T09:25:09.837Z,1.13
2022-09-18T09:27:52.949Z,0.90
2022-09-18T09:30:21.138Z,0.50
2022-09-18T09:33:05.083Z,0.60
2022-09-18T09:35:42.983Z,0.70
2022-09-18T09:38:32.344Z,0.70
2022-09-18T09:41:09.465Z,0.80
2022-09-18T09:43:49.547Z,0.60
2022-09-18T09:46:47.891Z,0.80
2022-09-18T09:49:29.998Z,0.60
2022-09-18T09:52:14.161Z,0.60
2022-09-18T09:54:41.361Z,1.13
2022-09-18T09:57:38.446Z,1.20
2022-09-18T10:00:14.666Z,0.73
2022-09-18T10:03:11.249Z,0.90
2022-09-18T10:06:05.450Z,1.00
2022-09-18T10:08:40.525Z,0.60
2022-09-18T10:11:11.413Z,1.07
2022-09-18T10:13:52.886Z,1.10
2022-09-18T10:16:50.241Z,1.40
2022-09-18T10:19:20.620Z,1.30
2022-09-18T10:21:52.918Z,1.23
2022-09-18T10:24:28.717Z,0.87
2022-09-18T10:27:03.921Z,0.70
2022-09-18T10:29:35.553Z,0.60
2022-09-18T10:32:03.405Z,0.50
2022-09-18T10:34:49.539Z,0.60
2022-09-18T10:37:30.258Z,0.53
2022-09-18T10:40:00.072Z,0.50
2022-09-18T10:42:32.400Z,0.37
2022-09-18T10:45:06.478Z,0.37
2022-09-18T10:47:36.650Z,0.50
2022-09-18T10:50:18.022Z,0.43
2022-09-18T10:52:49.614Z,0.30
2022-09-18T10:55:26.841Z,0.40
2022-09-18T10:57:55.054Z,0.40
2022-09-18T11:00:25.655Z,0.30
2022-09-18T11:03:30.619Z,0.50
2022-09-18T11:06:09.056Z,0.20
2022-09-18T11:08:46.406Z,0.20
2022-09-18T11:11:31.781Z,0.20
2022-09-18T11:14:05.795Z,0.40
2022-09-18T11:16:42.029Z,0.73
2022-09-18T11:19:15.273Z,0.20
2022-09-18T11:21:50.354Z,0.20
2022-09-18T11:24:27.882Z,0.20
2022-09-18T11:26:58.401Z,0.30
2022-09-18T11:29:39.734Z,0.20
2022-09-18T11:32:19.492Z,0.20
2022-09-18T11:34:54.138Z,0.30
2022-09-18T11:37:36.105Z,0.10
2022-09-18T11:40:15.494Z,0.20
2022-09-18T11:42:45.064Z,0.30
2022-09-18T11:45:24.770Z,0.10
2022-09-18T11:48:15.965Z,0.30
2022-09-18T11:50:44.286Z,0.60
2022-09-18T11:53:21.847Z,0.50
2022-09-18T11:56:07.249Z,0.70
2022-09-18T11:59:07.686Z,0.20
2022-09-18T12:01:54.019Z,0.20
2022-09-18T12:04:49.318Z,0.20
2022-09-18T12:10:23.632Z,0.30
2022-09-18T12:13:13.590Z,0.17
2022-09-18T12:15:59.051Z,0.37
2022-09-18T12:18:33.130Z,0.10
2022-09-18T12:21:12.093Z,0.13
2022-09-18T12:23:40.988Z,0.10
2022-09-18T12:26:09.464Z,0.20
2022-09-18T12:28:46.637Z,0.10
2022-09-18T12:31:25.131Z,0.10
2022-09-18T12:34:23.993Z,0.10
2022-09-18T12:37:01.362Z,0.20
2022-09-18T12:39:38.961Z,0.20
2022-09-18T12:42:27.057Z,0.20
2022-09-18T12:45:28.705Z,0.20
2022-09-18T12:48:34.467Z,0.30
2022-09-18T12:51:30.842Z,0.20
2022-09-18T12:54:20.610Z,0.20
2022-09-18T12:57:14.005Z,0.10
2022-09-18T13:00:13.931Z,0.00
2022-09-18T13:02:52.650Z,0.10
2022-09-18T13:05:35.353Z,0.10
2022-09-18T13:08:17.258Z,0.20
2022-09-18T13:10:47.211Z,0.10
2022-09-18T13:13:36.587Z,0.10
2022-09-18T13:16:11.720Z,0.20
2022-09-18T13:18:52.081Z,0.10
2022-09-18T13:21:31.085Z,0.10
2022-09-18T13:24:00.034Z,0.20
2022-09-18T13:26:31.649Z,0.20
2022-09-18T13:29:01.200Z,0.17
2022-09-18T13:31:32.266Z,0.20
2022-09-18T13:34:01.980Z,0.10
2022-09-18T13:36:43.585Z,0.10
2022-09-18T13:39:24.986Z,0.10
2022-09-18T13:41:58.781Z,0.20
2022-09-18T13:44:33.244Z,0.17
2022-09-18T13:47:12.664Z,0.10
2022-09-18T13:50:01.796Z,0.10
2022-09-18T13:52:42.684Z,0.20
2022-09-18T13:55:16.325Z,0.20
2022-09-18T13:57:44.815Z,0.17
2022-09-18T14:00:19.306Z,0.10
2022-09-18T14:02:50.862Z,0.20
2022-09-18T14:05:32.644Z,0.20
2022-09-18T14:08:19.849Z,0.20
2022-09-18T14:11:13.668Z,0.20
2022-09-18T14:13:51.442Z,0.20
2022-09-18T14:16:22.354Z,0.30
2022-09-18T14:19:00.657Z,0.23
2022-09-18T14:21:32.020Z,0.10
2022-09-18T14:24:05.755Z,0.30
2022-09-18T14:26:35.153Z,0.37
2022-09-18T14:29:14.894Z,0.10
2022-09-18T14:31:47.264Z,0.20
2022-09-18T14:34:23.636Z,0.10
2022-09-18T14:36:55.359Z,0.20
2022-09-18T14:39:28.449Z,0.20
2022-09-18T14:42:00.530Z,0.40
2022-09-18T14:44:33.198Z,0.30
2022-09-18T14:47:03.145Z,0.20
2022-09-18T14:49:39.613Z,0.20
2022-09-18T14:52:26.172Z,0.20
2022-09-18T14:54:56.855Z,0.27
2022-09-18T14:57:49.220Z,0.60
2022-09-18T15:00:20.187Z,0.67
2022-09-18T15:02:56.460Z,0.47
2022-09-18T15:05:26.738Z,0.53
2022-09-18T15:08:01.103Z,0.50
2022-09-18T15:10:30.932Z,0.30
2022-09-18T15:13:02.528Z,0.20
2022-09-18T15:15:33.392Z,0.30
2022-09-18T15:18:02.405Z,0.30
2022-09-18T15:20:31.085Z,0.30
2022-09-18T15:22:58.733Z,0.43
2022-09-18T15:25:32.322Z,0.70
2022-09-18T15:28:04.293Z,0.90
2022-09-18T15:30:31.198Z,0.63
2022-09-18T15:33:08.065Z,3.57
2022-09-18T15:35:38.061Z,1.50
2022-09-18T15:38:15.073Z,0.33
2022-09-18T15:40:44.437Z,0.47
2022-09-18T15:43:29.878Z,0.30
2022-09-18T15:46:26.496Z,0.40
2022-09-18T15:48:59.357Z,0.20
2022-09-18T15:51:29.710Z,0.30
2022-09-18T15:54:13.087Z,0.30
2022-09-18T15:56:52.196Z,0.30
2022-09-18T15:59:25.569Z,0.30
2022-09-18T16:01:52.535Z,0.50
2022-09-18T16:04:32.917Z,0.40
2022-09-18T16:07:04.345Z,0.40
2022-09-18T16:09:51.954Z,0.40
2022-09-18T16:12:42.323Z,0.40
2022-09-18T16:15:25.520Z,1.20
2022-09-18T16:18:29.094Z,0.53
2022-09-18T16:20:57.833Z,0.20
2022-09-18T16:23:34.223Z,0.30
2022-09-18T16:26:10.705Z,0.50
2022-09-18T16:28:43.964Z,0.37
2022-09-18T16:31:14.687Z,0.70
2022-09-18T16:33:56.997Z,0.60
2022-09-18T16:36:31.545Z,0.70
2022-09-18T16:39:01.545Z,0.63
2022-09-18T16:41:30.643Z,0.73
2022-09-18T16:43:57.526Z,0.30
2022-09-18T16:46:30.160Z,0.60
2022-09-18T16:48:58.566Z,0.40
2022-09-18T16:51:27.609Z,0.70
2022-09-18T16:53:56.364Z,0.40
2022-09-18T16:56:29.134Z,0.50
2022-09-18T16:58:59.441Z,1.00
2022-09-18T17:01:31.259Z,2.10
2022-09-18T17:04:08.452Z,0.40
2022-09-18T17:06:36.876Z,0.60
2022-09-18T17:09:04.506Z,0.37
2022-09-18T17:11:32.699Z,0.40
2022-09-18T17:14:00.444Z,0.40
2022-09-18T17:16:43.870Z,0.30
2022-09-18T17:19:12.906Z,0.30
2022-09-18T17:21:41.563Z,0.60
2022-09-18T17:24:09.918Z,0.80
2022-09-18T17:26:38.797Z,0.43
2022-09-18T17:29:06.668Z,0.50
2022-09-18T17:31:34.287Z,0.60
2022-09-18T17:34:02.628Z,0.87
2022-09-18T17:36:31.077Z,0.50
2022-09-18T17:39:02.322Z,0.50
2022-09-18T17:41:31.048Z,0.40
2022-09-18T17:43:58.694Z,0.70
2022-09-18T17:46:27.500Z,0.50
2022-09-18T17:48:59.651Z,0.40
2022-09-18T17:51:29.170Z,0.40
2022-09-18T17:54:03.033Z,0.37
2022-09-18T17:56:31.697Z,0.60
2022-09-18T17:59:02.825Z,0.40
2022-09-18T18:01:33.112Z,0.40
2022-09-18T18:04:00.780Z,0.30
2022-09-18T18:06:28.372Z,0.50
2022-09-18T18:08:56.553Z,0.40
2022-09-18T18:11:29.296Z,0.40
2022-09-18T18:13:56.843Z,0.40
2022-09-18T18:16:30.683Z,0.47
2022-09-18T18:19:01.457Z,0.40
2022-09-18T18:21:30.354Z,0.40
2022-09-18T18:24:00.773Z,0.50
2022-09-18T18:26:28.496Z,0.40
2022-09-18T18:28:56.812Z,0.40
2022-09-18T18:31:25.628Z,0.30
2022-09-18T18:33:54.538Z,0.30
2022-09-18T18:36:30.020Z,0.30
2022-09-18T18:38:59.896Z,0.50
2022-09-18T18:41:29.167Z,0.40
2022-09-18T18:43:59.692Z,0.50
2022-09-18T18:46:29.048Z,0.60
2022-09-18T18:49:02.610Z,0.60
2022-09-18T18:51:36.039Z,0.57
2022-09-18T18:54:05.339Z,0.70
2022-09-18T18:56:35.740Z,0.33
2022-09-18T18:59:05.569Z,0.30
2022-09-18T19:01:33.171Z,0.30
2022-09-18T19:04:03.410Z,0.40
2022-09-18T19:06:31.388Z,0.30
2022-09-18T19:09:09.677Z,0.47
2022-09-18T19:11:42.903Z,0.40
2022-09-18T19:14:17.747Z,1.00
2022-09-18T19:16:46.896Z,2.10
2022-09-18T19:19:17.400Z,3.23
2022-09-18T19:21:46.172Z,0.90
2022-09-18T19:24:15.528Z,1.73
2022-09-18T19:26:43.528Z,1.00
2022-09-18T19:29:15.649Z,0.63
2022-09-18T19:31:45.383Z,0.70
2022-09-18T19:34:15.064Z,0.80
2022-09-18T19:36:46.728Z,0.70
2022-09-18T19:39:14.866Z,0.60
2022-09-18T19:41:49.881Z,0.50
2022-09-18T19:44:29.120Z,0.80
2022-09-18T19:47:01.382Z,0.60
2022-09-18T19:49:47.180Z,0.63
2022-09-18T19:52:21.485Z,0.63
2022-09-18T19:54:50.962Z,0.60
2022-09-18T19:57:19.326Z,0.60
2022-09-18T19:59:47.134Z,0.70
2022-09-18T20:02:17.920Z,0.53
2022-09-18T20:04:45.509Z,0.50
2022-09-18T20:07:14.161Z,0.60
2022-09-18T20:09:42.448Z,0.40
2022-09-18T20:12:10.873Z,0.30
2022-09-18T20:14:38.442Z,0.40
2022-09-18T20:17:06.057Z,0.53
2022-09-18T20:19:34.869Z,0.53
2022-09-18T20:22:03.057Z,0.50
2022-09-18T20:24:31.862Z,0.50
2022-09-18T20:26:59.848Z,0.30
2022-09-18T20:29:29.025Z,0.40
2022-09-18T20:31:58.134Z,0.43
2022-09-18T20:34:26.221Z,0.27
2022-09-18T20:36:54.915Z,0.40
2022-09-18T20:39:22.663Z,0.40
2022-09-18T20:41:51.178Z,0.30
2022-09-18T20:44:19.596Z,0.43
2022-09-18T20:46:50.299Z,0.30
2022-09-18T20:49:18.032Z,0.47
2022-09-18T20:51:46.090Z,0.50
2022-09-18T20:54:14.766Z,0.43
2022-09-18T20:56:43.293Z,0.40
2022-09-18T20:59:11.752Z,0.57
2022-09-18T21:01:43.771Z,0.47
2022-09-18T21:04:17.418Z,0.40
2022-09-18T21:06:56.452Z,0.30
2022-09-18T21:09:26.945Z,0.63
2022-09-18T21:11:56.822Z,0.40
2022-09-18T21:14:26.372Z,0.30
2022-09-18T21:16:54.283Z,0.40
2022-09-18T21:19:21.810Z,0.37
2022-09-18T21:21:50.623Z,0.40
2022-09-18T21:24:18.073Z,0.43
2022-09-18T21:26:48.669Z,0.23
2022-09-18T21:29:22.862Z,0.40
2022-09-18T21:31:52.677Z,0.30
2022-09-18T21:34:26.946Z,0.57
2022-09-18T21:36:58.297Z,0.50
2022-09-18T21:39:30.635Z,0.30
2022-09-18T21:41:59.713Z,0.60
2022-09-18T21:44:30.114Z,0.50
2022-09-18T21:47:02.737Z,0.50
2022-09-18T21:49:31.033Z,0.30
2022-09-18T21:52:05.584Z,0.47
2022-09-18T21:54:34.053Z,0.50
2022-09-18T21:57:02.134Z,0.23
2022-09-18T21:59:31.623Z,0.53
2022-09-18T22:02:00.969Z,0.40
2022-09-18T22:04:32.440Z,0.30
2022-09-18T22:07:01.712Z,0.30
2022-09-18T22:09:32.668Z,0.40
2022-09-18T22:12:01.338Z,0.47
2022-09-18T22:14:32.988Z,0.50
2022-09-18T22:17:03.257Z,0.40
2022-09-18T22:19:33.218Z,0.40
2022-09-18T22:22:01.855Z,0.50
2022-09-18T22:24:29.413Z,0.50
2022-09-18T22:27:00.480Z,0.40
2022-09-18T22:29:34.401Z,0.57
2022-09-18T22:32:02.231Z,0.40
2022-09-18T22:34:32.589Z,0.40
2022-09-18T22:37:00.613Z,0.80
2022-09-18T22:39:30.177Z,0.50
2022-09-18T22:41:58.557Z,0.40
2022-09-18T22:44:26.904Z,0.30
2022-09-18T22:46:55.517Z,0.70
2022-09-18T22:49:24.488Z,0.60
2022-09-18T22:51:52.108Z,0.60
2022-09-18T22:54:23.901Z,0.40
2022-09-18T22:56:52.260Z,0.47
2022-09-18T22:59:21.893Z,0.60
2022-09-18T23:01:57.810Z,0.50
2022-09-18T23:04:29.288Z,0.50
2022-09-18T23:06:57.980Z,0.50
2022-09-18T23:09:26.027Z,0.40
2022-09-18T23:11:53.933Z,0.37
2022-09-18T23:14:23.520Z,0.50
2022-09-18T23:16:50.871Z,0.50
2022-09-18T23:19:30.737Z,0.47
2022-09-18T23:21:59.495Z,0.50
2022-09-18T23:24:27.578Z,0.50
2022-09-18T23:26:57.759Z,0.30
2022-09-18T23:29:27.770Z,0.60
2022-09-18T23:31:57.545Z,0.50
2022-09-18T23:34:31.457Z,0.50
2022-09-18T23:36:59.916Z,0.40
2022-09-18T23:39:31.146Z,0.40
2022-09-18T23:42:01.452Z,0.43
2022-09-18T23:44:31.155Z,0.50
2022-09-18T23:47:00.053Z,0.40
2022-09-18T23:49:27.136Z,0.40
2022-09-18T23:51:55.512Z,0.37
2022-09-18T23:54:25.745Z,0.40
2022-09-18T23:56:53.458Z,0.30
2022-09-18T23:59:23.249Z,0.47
